Elmwood, Oklahoma
Current Conditions -  °F | °C
As of 7:35 PM on Friday 19 Dec 2014 (Local Time) from KPYX Reporting Station
Overcast Overcast  
Wind Chill: 36°   Ceiling: 1300
Heat Index: 41°   Visibility: 10mi
Dew Point: 37°   Wind: 7mph
Humidity: 85%   Direction: 200°SSW
Pressure: 30.12"   Gusts: NA
Location:  36.7319°N, 100.575°W
Report Text: KPYX 200135Z AUTO 20006KT 10SM OVC013 05/03 A3012 RMK AO2 T00490025
Loading
Personal Weather Stations






























Interactive Weather Map New forecast layout! Learn more

10-Day Weather Forecast

Advertisements
Track Severe Weather on mobile